Canovanas, PR (00729)

2:47 PM AST on August 28, 2015 (GMT -0400)
Ciudad Jardin | | Change Station
CLOSE
Current Station
Personal Weather Station
Location: Carolina, PR
Elevation: 10 ft
Nearby Weather Stations

Elev 10 ft 18.37 °N, 65.93 °W | Updated 15 minutes ago

Mostly Cloudy
Mostly Cloudy
87.5 °F
Feels Like 100 °F
N
4.0
Wind Variable Wind from East
Gusts 14.0 mph

Today
High -- | Low -- °F
--% Chance of Precip.
Yesterday
High -- | Low -- °F
Precip. -- in
6:08 AM 6:41 PM
Waxing Gibbous, 98% visible
Pressure 29.99 in
Visibility 10.0 miles
Clouds Scattered Clouds 2500 ft
Scattered Clouds 3200 ft
Mostly Cloudy 4500 ft
Heat Index 100 °F
Dew Point 78 °F
Humidity 73%
Rainfall 0.23 in
Snow Depth Not available.
UV 6 out of 12
Pollen Not available.
Air Quality Not available.
Flu Activity Not available.
METAR TJSJ 281756Z 10015G23KT 10SM SCT025 SCT032 BKN045 32/25 A2999 RMK AO2 PK WND 09028/1737 SLP153 VCSH SE S-SW 60007 T03170250 10317 20244 58012
Pressure 29.99 in
Visibility 10.0 miles
Clouds Scattered Clouds 2500 ft
Scattered Clouds 3200 ft
Mostly Cloudy 4500 ft
Heat Index 100 °F
Dew Point 78 °F
Humidity 73%
Rainfall 0.23 in
Snow Depth Not available.
UV 6 out of 12
Pollen Not available.
Air Quality Not available.
Flu Activity Not available.
METAR TJSJ 281756Z 10015G23KT 10SM SCT025 SCT032 BKN045 32/25 A2999 RMK AO2 PK WND 09028/1737 SLP153 VCSH SE S-SW 60007 T03170250 10317 20244 58012

10-Day Weather Forecast

×

Almanac

Astronomy

Aug. 28, 2015 Rise Set
Actual Time
Civil Twilight
Nautical Twilight
Astronomical Twilight
Moon
Length of Visible Light
Length of Day
Tomorrow will be .
, % of the Moon is Illuminated

Today's Extremes

State Highs State Lows

Community

WunderPhotos

Upload Photos

1,850,453 photos uploaded!

WunderBlogs® & News

Nearby

Air Quality

  Air Quality AQ Index Pollutant
Not available.

Snow Depth

Station Depth Elevation

Earthquake Activity

City Distance Mag. Time & Date
Minimum magnitude displayed is 2.5.

Coastal Water Temperatures

Place Temperature

Stations

Nearby Weather Stations

Station Location Temp. Windchill Dew Point Humidity Wind Precip. Elev Updated Type